TFM - Tactical Decision Aid
ID: Runway Winds: CIG/VIS Threshold:

KBGM - Binghamton Arpt, NY, US

Updated at: 1837 UTC 26 Oct 2021
Latest TAF at: 1752 UTC 26 Oct 2021

TAF Board

Time1831Z 26/19Z 26/20Z 26/21Z 26/22Z 26/23Z 27/00Z 27/01Z 27/02Z 27/03Z 27/04Z 27/05Z 27/06Z 27/07Z>>
Type OBS PRVL
  [TEMP]  
PRVL PRVL PRVL PRVL PRVL PRVL PRVL PRVL PRVL PRVL PRVL PRVL
VIS 2 2
  [3]  
2 2 2 2 3 3 3 3 3 3 3 3
CIG 24 40
  [15]  
15 15 15 15 8 8 8 8 8 8 8 8
Cover OVC OVC
  [OVC]  
OVC OVC OVC OVC OVC OVC OVC OVC OVC OVC OVC OVC
FltCat IFR IFR
  [MVFR]  
IFR IFR IFR IFR IFR IFR IFR IFR IFR IFR IFR IFR
WX +RA BR +RA BR
  [RA BR]  
+RA BR +RA BR +RA BR +RA BR -RA BR -RA BR -RA BR -RA BR -RA BR -RA BR -RA BR -RA BR
WDir 340 20
[20]
360 360 360 360 10 10 10 10 10 10 10 10
WSpd 9 12
  [12]  
12 12 12 12 12 12 12 12 12 12 12 12
WGst -- --
  [--]  
20 20 20 20 20 20 20 20 20 20 20 20

TDA Impact Legend

  None Marginal Slight Moderate High
Visibility (sm) >5 3≤X≤5 2≤X<3 0.5≤X<2 <0.5
Ceiling (100 ft) >30 10≤X≤30 6≤X<10 2≤X<6 <2
Wind Speed (kt) <15 15≤X<25 25≤X<30 ≥30
Wind Gust (kt) <15 15≤X<25 25≤X<35 ≥35
Weather No Wx Reported VCTS -TS,-FZRA TS,FZRA +TS,+FZRA
TAF
KBGM 261752Z 2618/2718 02012KT 2SM +RA BR OVC040
  TEMPO 2618/2620 3SM RA BR BKN015 OVC040
  FM262000 36012G20KT 2SM +RA BR OVC015
  FM270000 01012G20KT 3SM -RA BR OVC008
  FM270800 35010G18KT P6SM OVC005
  FM271600 24010G18KT P6SM OVC012


METAR
KBGM 261831Z 34009KT 2SM +RA BR OVC024 09/09 A2944 RMK AO2 P0017 T00940094
KBGM 261753Z 36014KT 2 1/2SM +RA BR BKN039 OVC047 09/09 A2945 RMK AO2 SLP973 P0042 60123 T00940089 10122 20094 56017
KBGM 261749Z 36012G20KT 2SM +RA BR BKN036 OVC045 09/09 A2945 RMK AO2 TWR VIS 2 1/2 P0040
KBGM 261724Z 02012KT 1 3/4SM +RA BR BKN039 BKN050 OVC060 09/09 A2946 RMK AO2 TWR VIS 2 1/2 P0021 T00940094
KBGM 261715Z 02011KT 2SM +RA BR BKN041 OVC060 09/09 A2946 RMK AO2 TWR VIS 2 1/2 P0014 T00940094
KBGM 261708Z 02010KT 1 3/4SM +RA BR BKN041 OVC060 09/09 A2947 RMK AO2 TWR VIS 2 1/2 P0010 T00940094
KBGM 261701Z 02014KT 2SM +RA BR BKN035 BKN045 OVC060 09/09 A2947 RMK AO2 TWR VIS 2 1/2 P0005 T00940089
KBGM 261653Z 02013G19KT 2SM +RA BR BKN029 BKN043 OVC060 09/09 A2948 RMK AO2 TWR VIS 2 1/2 SLP980 P0037 T00940094
KBGM 261649Z 03011G19KT 2SM +RA BR BKN031 BKN050 OVC060 09/09 A2948 RMK AO2 TWR VIS 2 1/2 P0035
KBGM 261640Z 04013G21KT 1 3/4SM +RA BR FEW005 BKN026 OVC055 09/09 A2948 RMK AO2 TWR VIS 2 1/2 P0029 T00940094
KBGM 261606Z 03011KT 2SM +RA BR FEW004 BKN015 OVC021 09/09 A2950 RMK AO2 TWR VIS 2 1/2 P0011 T00940094
KBGM 261553Z 03009KT 1 1/4SM +RA BR SCT004 BKN020 OVC030 09/09 A2950 RMK AO2 TWR VIS 2 1/2 SLP990 P0031 T00940094
KBGM 261546Z 04011KT 1 3/4SM +RA BR BKN004 OVC032 09/09 A2951 RMK AO2 TWR VIS 2 1/2 P0023 T00940094
KBGM 261525Z 04011KT 2 1/2SM +RA BR FEW004 BKN041 OVC065 09/09 A2950 RMK AO2 TWR VIS 3 P0013 T00940094
KBGM 261516Z 04011KT 2 1/2SM +RA BR SCT004 BKN029 OVC060 09/09 A2951 RMK AO2 TWR VIS 3 P0009 T00940094

Radar Display
Forecast Discussion